Terminal Aerodrome Forecast
Issued by NWS Kansas City/Pleasant Hill, MO

Current Version | Previous Version | Text Only | Print | Product List | Glossary On
Versions: 1 2 3 4 5 6 7 8 9 10 11 12 13 14 15
000
FTUS43 KEAX 242320
TAFMCI
TAF
KMCI 242320Z 2500/2524 32014G20KT P6SM VCSH SCT016 OVC025
      TEMPO 2500/2502 3SM -SN BKN016
     FM250400 32014KT P6SM OVC050
     FM250800 32011KT P6SM SCT200=

USA.gov is the U.S. government's official web portal to all federal, state and local government web resources and services.